createdAt,value
2017-06-28T00:02:27.782Z,0
2017-06-28T00:06:28.357Z,0
2017-06-28T00:10:28.932Z,0
2017-06-28T00:14:29.512Z,0
2017-06-28T00:18:30.152Z,0
2017-06-28T00:22:22.290Z,0
2017-06-28T00:25:03.664Z,0
2017-06-28T00:28:55.807Z,0
2017-06-28T00:34:32.564Z,0
2017-06-28T00:38:33.125Z,0
2017-06-28T00:41:05.563Z,0
2017-06-28T00:44:57.784Z,0
2017-06-28T00:47:22.180Z,0
2017-06-28T00:49:46.671Z,0
2017-06-28T00:54:04.134Z,0
2017-06-28T00:56:28.616Z,0
2017-06-28T00:58:53.108Z,0
2017-06-28T01:02:53.438Z,0
2017-06-28T01:05:17.822Z,0
2017-06-28T01:07:42.212Z,0
2017-06-28T01:10:06.721Z,0
2017-06-28T01:12:31.206Z,0
2017-06-28T01:14:30.187Z,0
2017-06-28T01:17:02.265Z,0
2017-06-28T01:19:26.650Z,0
2017-06-28T01:21:42.644Z,0
2017-06-28T01:24:09.088Z,0
2017-06-28T01:26:34.465Z,0
2017-06-28T01:31:07.751Z,0
2017-06-28T01:33:34.155Z,0
2017-06-28T01:35:58.522Z,0
2017-06-28T01:38:14.350Z,0
2017-06-28T01:40:38.680Z,0
2017-06-28T01:43:02.976Z,0
2017-06-28T01:45:27.289Z,0
2017-06-28T01:47:51.530Z,0
2017-06-28T01:50:15.820Z,0
2017-06-28T01:54:41.526Z,0
2017-06-28T01:57:05.737Z,0
2017-06-28T01:59:29.927Z,0
2017-06-28T02:01:54.096Z,0
2017-06-28T02:06:19.710Z,0
2017-06-28T02:08:43.918Z,0
2017-06-28T02:10:59.679Z,0
2017-06-28T02:13:15.495Z,0
2017-06-28T02:15:31.234Z,0
2017-06-28T02:17:55.460Z,0
2017-06-28T02:20:02.801Z,0
2017-06-28T02:22:27.034Z,0
2017-06-28T02:24:51.186Z,0
2017-06-28T02:27:15.413Z,0
2017-06-28T02:29:39.601Z,0
2017-06-28T02:32:03.791Z,0
2017-06-28T02:34:27.957Z,0
2017-06-28T02:36:52.155Z,0
2017-06-28T02:39:07.984Z,0
2017-06-28T02:41:09.594Z,0
2017-06-28T02:45:26.753Z,0
2017-06-28T02:47:51.009Z,0
2017-06-28T02:50:15.206Z,0
2017-06-28T02:52:39.478Z,0
2017-06-28T02:55:03.677Z,0
2017-06-28T02:57:19.461Z,0
2017-06-28T02:59:43.760Z,0
2017-06-28T03:01:59.537Z,0
2017-06-28T03:04:23.725Z,0
2017-06-28T03:06:39.556Z,0
2017-06-28T03:08:55.352Z,4
2017-06-28T18:41:52.613Z,612
2017-06-28T18:44:17.368Z,568
2017-06-28T18:46:42.084Z,536
2017-06-28T18:49:06.765Z,500
2017-06-28T18:51:24.020Z,448
2017-06-28T18:53:48.786Z,396
2017-06-28T18:56:13.430Z,356
2017-06-28T18:58:38.051Z,308
2017-06-28T19:01:02.775Z,272
2017-06-28T19:03:28.489Z,240
2017-06-28T19:05:53.174Z,212
2017-06-28T19:08:18.307Z,188
2017-06-28T19:10:42.886Z,168
2017-06-28T19:13:07.579Z,152
2017-06-28T19:15:32.298Z,132
2017-06-28T19:17:56.988Z,108
2017-06-28T19:20:21.680Z,80
2017-06-28T19:22:46.378Z,60
2017-06-28T19:27:12.670Z,48
2017-06-28T19:29:37.328Z,40
2017-06-28T19:32:02.023Z,32
2017-06-28T19:34:18.114Z,20
2017-06-28T19:36:42.863Z,16
2017-06-28T19:39:07.511Z,12
2017-06-28T19:41:32.194Z,8
2017-06-28T19:43:48.338Z,4
2017-06-28T19:46:12.973Z,8
2017-06-28T19:48:37.686Z,4
2017-06-28T19:51:02.371Z,0
2017-06-28T19:53:27.057Z,0
2017-06-28T19:55:51.652Z,0
2017-06-28T19:58:16.252Z,0
2017-06-28T20:00:32.444Z,0
2017-06-28T20:02:57.145Z,0
2017-06-28T20:05:21.892Z,0
2017-06-28T20:07:46.551Z,0
2017-06-28T20:10:11.229Z,0
2017-06-28T20:14:37.320Z,0
2017-06-28T20:17:01.957Z,0
2017-06-28T20:19:26.559Z,0
2017-06-28T20:23:52.652Z,0
2017-06-28T20:26:17.299Z,0
2017-06-28T20:28:33.425Z,0
2017-06-28T20:30:58.126Z,0
2017-06-28T20:33:22.666Z,0
2017-06-28T20:35:47.281Z,0
2017-06-28T20:38:11.857Z,0
2017-06-28T20:40:39.725Z,0
2017-06-28T20:43:04.345Z,0
2017-06-28T20:45:29.045Z,0
2017-06-28T20:47:45.120Z,0
2017-06-28T20:50:09.724Z,0
2017-06-28T20:52:25.821Z,0
2017-06-28T20:54:35.886Z,0
2017-06-28T20:57:00.345Z,0
2017-06-28T20:59:24.831Z,0
2017-06-28T21:01:49.317Z,0
2017-06-28T21:04:13.818Z,0
2017-06-28T21:06:38.299Z,0
2017-06-28T21:09:02.792Z,0
2017-06-28T21:11:18.724Z,0
2017-06-28T21:13:43.165Z,0
2017-06-28T21:16:07.661Z,0
2017-06-28T21:18:32.050Z,0
2017-06-28T21:20:47.988Z,0
2017-06-28T21:23:12.406Z,0
2017-06-28T21:25:36.804Z,0
2017-06-28T21:28:01.204Z,0
2017-06-28T21:30:11.225Z,0
2017-06-28T21:32:35.620Z,0
2017-06-28T21:34:45.646Z,0
2017-06-28T21:37:10.088Z,0
2017-06-28T21:39:34.468Z,0
2017-06-28T21:41:58.848Z,0
2017-06-28T21:46:24.696Z,0
2017-06-28T21:48:49.086Z,0
2017-06-28T21:51:13.453Z,0
2017-06-28T21:53:37.856Z,0
2017-06-28T21:56:02.242Z,0
2017-06-28T21:58:26.697Z,0
2017-06-28T22:00:51.027Z,0
2017-06-28T22:03:15.302Z,0
2017-06-28T22:05:31.147Z,0
2017-06-28T22:07:55.482Z,0
2017-06-28T22:10:19.873Z,0
2017-06-28T22:12:44.251Z,0
2017-06-28T22:15:08.545Z,0
2017-06-28T22:17:32.811Z,0
2017-06-28T22:19:57.111Z,0
2017-06-28T22:22:21.409Z,0
2017-06-28T22:24:45.688Z,0
2017-06-28T22:27:09.967Z,0
2017-06-28T22:29:34.261Z,0
2017-06-28T22:31:58.545Z,0
2017-06-28T22:34:22.831Z,0
2017-06-28T22:36:38.631Z,0
2017-06-28T22:39:02.899Z,0
2017-06-28T22:41:27.203Z,0
2017-06-28T22:43:51.466Z,0
2017-06-28T22:46:07.320Z,0
2017-06-28T22:48:31.654Z,0
2017-06-28T22:50:55.947Z,0
2017-06-28T22:53:20.227Z,0
2017-06-28T22:55:44.515Z,0
2017-06-28T22:58:00.276Z,0
2017-06-28T23:00:24.472Z,0
2017-06-28T23:02:48.754Z,0
2017-06-28T23:05:04.604Z,0
2017-06-28T23:07:28.834Z,0
2017-06-28T23:09:53.110Z,0
2017-06-28T23:12:17.294Z,0
2017-06-28T23:14:41.589Z,0
2017-06-28T23:17:05.772Z,0
2017-06-28T23:19:29.972Z,0
2017-06-28T23:21:54.232Z,0
2017-06-28T23:24:18.429Z,0
2017-06-28T23:26:42.623Z,0
2017-06-28T23:28:58.400Z,0
2017-06-28T23:31:22.584Z,0
2017-06-28T23:33:46.772Z,0
2017-06-28T23:36:10.972Z,0
2017-06-28T23:38:04.049Z,0
2017-06-28T23:40:19.903Z,0
2017-06-28T23:42:35.635Z,0
2017-06-28T23:44:59.792Z,0
2017-06-28T23:47:01.319Z,0
2017-06-28T23:49:25.505Z,0
2017-06-28T23:51:49.688Z,0
2017-06-28T23:54:13.863Z,0
2017-06-28T23:56:30.451Z,0
2017-06-28T23:58:54.657Z,0
